Vicksburg, Michigan
Current Conditions -  °F | °C
As of 1:53 PM on Friday 21 Nov 2014 (Local Time) from KAZO Reporting Station
Clear Clear  
Wind Chill: 17°   Ceiling: Unl
Heat Index: 26°   Visibility: 10mi
Dew Point: 14°   Wind: 9mph
Humidity: 60%   Direction: 170°S
Pressure: 30.42"   Gusts: NA
Location:  42.12°N, 85.53°W
Report Text: KAZO 211853Z 17008KT 10SM CLR M03/M10 A3042 RMK AO2 SLP315 T10331100
Loading
Personal Weather Stations






























Interactive Weather Map New forecast layout! Learn more

10-Day Weather Forecast

Advertisements
Track Severe Weather on mobile